sensor_id;sensor_type;location;lat;lon;timestamp;pressure;altitude;pressure_sealevel;temperature;humidity
3206;BME280;1615;53.602;11.418;2023-05-09T00:01:11;101882.78;;;11.81;92.50
3206;BME280;1615;53.602;11.418;2023-05-09T00:03:37;101875.09;;;11.68;93.45
3206;BME280;1615;53.602;11.418;2023-05-09T00:06:03;101788.75;;;11.19;93.80
3206;BME280;1615;53.602;11.418;2023-05-09T00:08:29;101880.00;;;11.66;94.30
3206;BME280;1615;53.602;11.418;2023-05-09T00:10:54;101858.03;;;11.61;95.27
3206;BME280;1615;53.602;11.418;2023-05-09T00:13:19;101868.97;;;11.56;95.87
3206;BME280;1615;53.602;11.418;2023-05-09T00:15:45;101858.25;;;11.54;96.77
3206;BME280;1615;53.602;11.418;2023-05-09T00:18:11;101860.47;;;11.52;97.47
3206;BME280;1615;53.602;11.418;2023-05-09T00:20:37;101854.69;;;11.49;98.47
3206;BME280;1615;53.602;11.418;2023-05-09T00:23:02;101850.31;;;11.48;98.89
3206;BME280;1615;53.602;11.418;2023-05-09T00:25:28;101829.72;;;11.40;98.53
3206;BME280;1615;53.602;11.418;2023-05-09T00:27:53;101845.63;;;11.53;99.07
3206;BME280;1615;53.602;11.418;2023-05-09T00:30:19;101840.44;;;11.52;99.61
3206;BME280;1615;53.602;11.418;2023-05-09T00:32:44;101770.09;;;11.11;99.83
3206;BME280;1615;53.602;11.418;2023-05-09T00:35:09;101837.69;;;11.42;100.00
3206;BME280;1615;53.602;11.418;2023-05-09T00:37:35;101822.56;;;11.39;100.00
3206;BME280;1615;53.602;11.418;2023-05-09T00:40:00;101838.75;;;11.46;100.00
3206;BME280;1615;53.602;11.418;2023-05-09T00:42:26;101836.84;;;11.41;100.00
3206;BME280;1615;53.602;11.418;2023-05-09T00:44:51;101839.31;;;11.43;100.00
3206;BME280;1615;53.602;11.418;2023-05-09T00:47:16;101754.69;;;10.90;100.00
3206;BME280;1615;53.602;11.418;2023-05-09T00:49:42;101826.94;;;11.35;100.00
3206;BME280;1615;53.602;11.418;2023-05-09T00:52:07;101753.59;;;10.96;100.00
3206;BME280;1615;53.602;11.418;2023-05-09T00:54:33;101815.41;;;11.38;100.00
3206;BME280;1615;53.602;11.418;2023-05-09T00:56:58;101809.13;;;11.38;100.00
3206;BME280;1615;53.602;11.418;2023-05-09T00:59:24;101798.66;;;11.25;100.00
3206;BME280;1615;53.602;11.418;2023-05-09T01:01:50;101803.88;;;11.36;100.00
3206;BME280;1615;53.602;11.418;2023-05-09T01:04:15;101812.38;;;11.35;100.00
3206;BME280;1615;53.602;11.418;2023-05-09T01:07:09;101809.63;;;11.35;100.00
3206;BME280;1615;53.602;11.418;2023-05-09T01:10:10;101798.66;;;11.30;100.00
3206;BME280;1615;53.602;11.418;2023-05-09T01:12:46;101793.72;;;11.17;100.00
3206;BME280;1615;53.602;11.418;2023-05-09T01:15:19;101793.72;;;11.32;100.00
3206;BME280;1615;53.602;11.418;2023-05-09T01:20:29;101786.03;;;11.29;100.00
3206;BME280;1615;53.602;11.418;2023-05-09T01:31:22;101789.88;;;11.18;100.00
3206;BME280;1615;53.602;11.418;2023-05-09T01:34:01;101787.38;;;11.11;100.00
3206;BME280;1615;53.602;11.418;2023-05-09T01:36:29;101792.06;;;11.11;100.00
3206;BME280;1615;53.602;11.418;2023-05-09T01:38:55;101790.97;;;11.12;100.00
3206;BME280;1615;53.602;11.418;2023-05-09T01:41:23;101714.03;;;10.57;100.00
3206;BME280;1615;53.602;11.418;2023-05-09T01:43:50;101785.72;;;11.05;100.00
3206;BME280;1615;53.602;11.418;2023-05-09T01:46:18;101719.22;;;10.63;100.00
3206;BME280;1615;53.602;11.418;2023-05-09T01:48:44;101787.09;;;11.03;100.00
3206;BME280;1615;53.602;11.418;2023-05-09T01:51:12;101783.81;;;11.01;100.00
3206;BME280;1615;53.602;11.418;2023-05-09T01:53:39;101760.72;;;10.92;100.00
3206;BME280;1615;53.602;11.418;2023-05-09T01:56:06;101743.16;;;10.78;100.00
3206;BME280;1615;53.602;11.418;2023-05-09T01:58:34;101791.19;;;10.95;100.00
3206;BME280;1615;53.602;11.418;2023-05-09T02:01:02;101773.66;;;10.96;100.00
3206;BME280;1615;53.602;11.418;2023-05-09T02:03:28;101768.97;;;10.97;100.00
3206;BME280;1615;53.602;11.418;2023-05-09T02:05:54;101765.44;;;11.01;100.00
3206;BME280;1615;53.602;11.418;2023-05-09T02:08:20;101678.91;;;10.49;100.00
3206;BME280;1615;53.602;11.418;2023-05-09T02:10:49;101771.72;;;10.97;100.00
3206;BME280;1615;53.602;11.418;2023-05-09T02:13:15;101767.06;;;11.02;100.00
3206;BME280;1615;53.602;11.418;2023-05-09T02:15:41;101766.22;;;11.02;100.00
3206;BME280;1615;53.602;11.418;2023-05-09T02:18:07;101759.63;;;10.93;100.00
3206;BME280;1615;53.602;11.418;2023-05-09T02:20:32;101757.19;;;10.96;100.00
3206;BME280;1615;53.602;11.418;2023-05-09T02:23:00;101757.72;;;10.93;100.00
3206;BME280;1615;53.602;11.418;2023-05-09T02:25:25;101634.69;;;10.25;100.00
3206;BME280;1615;53.602;11.418;2023-05-09T02:27:52;101744.84;;;10.94;100.00
3206;BME280;1615;53.602;11.418;2023-05-09T02:30:22;101741.25;;;10.93;100.00
3206;BME280;1615;53.602;11.418;2023-05-09T02:32:51;101744.25;;;10.92;100.00
3206;BME280;1615;53.602;11.418;2023-05-09T02:35:18;101744.25;;;10.92;100.00
3206;BME280;1615;53.602;11.418;2023-05-09T02:37:44;101741.50;;;10.87;100.00
3206;BME280;1615;53.602;11.418;2023-05-09T02:40:10;101743.19;;;10.88;100.00
3206;BME280;1615;53.602;11.418;2023-05-09T02:42:36;101736.84;;;10.87;100.00
3206;BME280;1615;53.602;11.418;2023-05-09T02:45:02;101745.63;;;10.84;100.00
3206;BME280;1615;53.602;11.418;2023-05-09T02:47:27;101740.44;;;10.83;100.00
3206;BME280;1615;53.602;11.418;2023-05-09T02:49:52;101740.69;;;10.81;100.00
3206;BME280;1615;53.602;11.418;2023-05-09T02:52:17;101739.31;;;10.79;100.00
3206;BME280;1615;53.602;11.418;2023-05-09T02:54:44;101650.88;;;10.27;100.00
3206;BME280;1615;53.602;11.418;2023-05-09T02:57:09;101753.00;;;10.74;100.00
3206;BME280;1615;53.602;11.418;2023-05-09T02:59:34;101687.66;;;10.41;100.00
3206;BME280;1615;53.602;11.418;2023-05-09T03:02:00;101731.59;;;10.71;100.00
3206;BME280;1615;53.602;11.418;2023-05-09T03:04:25;101738.75;;;10.67;100.00
3206;BME280;1615;53.602;11.418;2023-05-09T03:06:51;101679.94;;;10.28;100.00
3206;BME280;1615;53.602;11.418;2023-05-09T03:09:16;101736.00;;;10.67;100.00
3206;BME280;1615;53.602;11.418;2023-05-09T03:11:42;101731.56;;;10.61;100.00
3206;BME280;1615;53.602;11.418;2023-05-09T03:14:07;101734.31;;;10.56;100.00
3206;BME280;1615;53.602;11.418;2023-05-09T03:16:33;101727.44;;;10.58;100.00
3206;BME280;1615;53.602;11.418;2023-05-09T03:18:59;101730.47;;;10.57;100.00
3206;BME280;1615;53.602;11.418;2023-05-09T03:21:24;101726.09;;;10.56;100.00
3206;BME280;1615;53.602;11.418;2023-05-09T03:23:49;101715.63;;;10.48;100.00
3206;BME280;1615;53.602;11.418;2023-05-09T03:26:15;101707.69;;;10.51;100.00
3206;BME280;1615;53.602;11.418;2023-05-09T03:28:40;101703.84;;;10.47;100.00
3206;BME280;1615;53.602;11.418;2023-05-09T03:31:05;101703.56;;;10.49;100.00
3206;BME280;1615;53.602;11.418;2023-05-09T03:33:31;101697.28;;;10.48;100.00
3206;BME280;1615;53.602;11.418;2023-05-09T03:35:56;101696.97;;;10.45;100.00
3206;BME280;1615;53.602;11.418;2023-05-09T03:38:21;101610.72;;;9.91;100.00
3206;BME280;1615;53.602;11.418;2023-05-09T03:40:49;101701.09;;;10.47;100.00
3206;BME280;1615;53.602;11.418;2023-05-09T03:43:14;101697.28;;;10.48;100.00
3206;BME280;1615;53.602;11.418;2023-05-09T03:45:40;101689.59;;;10.45;100.00
3206;BME280;1615;53.602;11.418;2023-05-09T03:48:05;101697.53;;;10.47;100.00
3206;BME280;1615;53.602;11.418;2023-05-09T03:50:33;101598.91;;;9.80;100.00
3206;BME280;1615;53.602;11.418;2023-05-09T03:52:59;101704.66;;;10.48;100.00
3206;BME280;1615;53.602;11.418;2023-05-09T03:55:24;101706.03;;;10.45;100.00
3206;BME280;1615;53.602;11.418;2023-05-09T03:57:49;101708.50;;;10.47;100.00
3206;BME280;1615;53.602;11.418;2023-05-09T04:00:15;101712.34;;;10.46;100.00
3206;BME280;1615;53.602;11.418;2023-05-09T04:02:41;101700.31;;;10.52;100.00
3206;BME280;1615;53.602;11.418;2023-05-09T04:05:06;101695.63;;;10.52;100.00
3206;BME280;1615;53.602;11.418;2023-05-09T04:07:32;101639.88;;;10.12;100.00
3206;BME280;1615;53.602;11.418;2023-05-09T04:09:57;101695.09;;;10.55;100.00
3206;BME280;1615;53.602;11.418;2023-05-09T04:12:22;101688.47;;;10.41;100.00
3206;BME280;1615;53.602;11.418;2023-05-09T04:14:48;101704.16;;;10.56;100.00
3206;BME280;1615;53.602;11.418;2023-05-09T04:17:13;101714.03;;;10.57;100.00
3206;BME280;1615;53.602;11.418;2023-05-09T04:19:38;101655.25;;;10.23;100.00
3206;BME280;1615;53.602;11.418;2023-05-09T04:22:04;101707.47;;;10.63;100.00
3206;BME280;1615;53.602;11.418;2023-05-09T04:24:29;101710.22;;;10.68;100.00
3206;BME280;1615;53.602;11.418;2023-05-09T04:26:55;101659.13;;;10.37;100.00
3206;BME280;1615;53.602;11.418;2023-05-09T04:29:21;101711.34;;;10.72;100.00
3206;BME280;1615;53.602;11.418;2023-05-09T04:31:46;101705.56;;;10.78;100.00
3206;BME280;1615;53.602;11.418;2023-05-09T04:34:11;101705.84;;;10.92;100.00
3206;BME280;1615;53.602;11.418;2023-05-09T04:36:37;101605.44;;;10.41;100.00
3206;BME280;1615;53.602;11.418;2023-05-09T04:39:02;101694.34;;;11.05;100.00
3206;BME280;1615;53.602;11.418;2023-05-09T04:41:29;101604.09;;;10.53;100.00
3206;BME280;1615;53.602;11.418;2023-05-09T04:43:55;101690.78;;;11.14;100.00
3206;BME280;1615;53.602;11.418;2023-05-09T04:46:20;101616.41;;;10.81;100.00
3206;BME280;1615;53.602;11.418;2023-05-09T04:48:46;101678.97;;;11.29;100.00
3206;BME280;1615;53.602;11.418;2023-05-09T04:51:11;101680.06;;;11.43;100.00
3206;BME280;1615;53.602;11.418;2023-05-09T04:53:36;101657.56;;;11.36;100.00
3206;BME280;1615;53.602;11.418;2023-05-09T04:56:02;101672.63;;;11.58;100.00
3206;BME280;1615;53.602;11.418;2023-05-09T04:58:27;101673.19;;;11.65;100.00
3206;BME280;1615;53.602;11.418;2023-05-09T05:00:53;101665.75;;;11.71;100.00
3206;BME280;1615;53.602;11.418;2023-05-09T05:03:18;101668.50;;;11.76;100.00
3206;BME280;1615;53.602;11.418;2023-05-09T05:05:43;101662.69;;;11.92;100.00
3206;BME280;1615;53.602;11.418;2023-05-09T05:08:08;101645.88;;;11.99;100.00
3206;BME280;1615;53.602;11.418;2023-05-09T05:10:34;101644.25;;;11.93;100.00
3206;BME280;1615;53.602;11.418;2023-05-09T05:12:59;101651.97;;;11.91;100.00
3206;BME280;1615;53.602;11.418;2023-05-09T05:15:25;101600.69;;;11.66;100.00
3206;BME280;1615;53.602;11.418;2023-05-09T05:17:51;101620.63;;;11.92;100.00
3206;BME280;1615;53.602;11.418;2023-05-09T05:20:16;101456.66;;;11.19;100.00
3206;BME280;1615;53.602;11.418;2023-05-09T05:22:42;101644.03;;;12.43;100.00
3206;BME280;1615;53.602;11.418;2023-05-09T05:25:07;101636.22;;;12.55;100.00
3206;BME280;1615;53.602;11.418;2023-05-09T05:27:33;101633.38;;;12.70;98.53
3206;BME280;1615;53.602;11.418;2023-05-09T05:29:58;101641.63;;;12.70;97.18
3206;BME280;1615;53.602;11.418;2023-05-09T05:32:23;101639.38;;;12.77;96.76
3206;BME280;1615;53.602;11.418;2023-05-09T05:34:49;101638.19;;;12.88;96.14
3206;BME280;1615;53.602;11.418;2023-05-09T05:37:14;101624.25;;;13.13;95.08
3206;BME280;1615;53.602;11.418;2023-05-09T05:39:39;101626.28;;;13.31;93.93
3206;BME280;1615;53.602;11.418;2023-05-09T05:42:05;101622.84;;;13.44;93.29
3206;BME280;1615;53.602;11.418;2023-05-09T05:44:30;101624.44;;;13.50;91.96
3206;BME280;1615;53.602;11.418;2023-05-09T05:46:55;101624.06;;;13.56;91.74
3206;BME280;1615;53.602;11.418;2023-05-09T05:49:21;101617.97;;;13.59;91.37
3206;BME280;1615;53.602;11.418;2023-05-09T05:51:46;101475.25;;;12.91;90.42
3206;BME280;1615;53.602;11.418;2023-05-09T05:54:11;101499.88;;;13.06;89.03
3206;BME280;1615;53.602;11.418;2023-05-09T05:56:37;101605.91;;;13.79;88.79
3206;BME280;1615;53.602;11.418;2023-05-09T05:59:02;101482.94;;;12.89;89.03
3206;BME280;1615;53.602;11.418;2023-05-09T06:01:27;101479.13;;;12.85;89.68
3206;BME280;1615;53.602;11.418;2023-05-09T06:03:53;101593.59;;;13.48;89.64
3206;BME280;1615;53.602;11.418;2023-05-09T06:06:21;101627.44;;;13.77;89.27
3206;BME280;1615;53.602;11.418;2023-05-09T06:08:47;101605.97;;;13.74;87.50
3206;BME280;1615;53.602;11.418;2023-05-09T06:11:16;101610.72;;;13.92;89.05
3206;BME280;1615;53.602;11.418;2023-05-09T06:13:41;101162.38;;;11.32;87.78
3206;BME280;1615;53.602;11.418;2023-05-09T06:16:07;101544.28;;;13.70;86.96
3206;BME280;1615;53.602;11.418;2023-05-09T06:18:34;101586.50;;;14.07;86.80
3206;BME280;1615;53.602;11.418;2023-05-09T06:21:02;101526.19;;;13.40;85.55
3206;BME280;1615;53.602;11.418;2023-05-09T06:23:27;101584.78;;;13.93;87.04
3206;BME280;1615;53.602;11.418;2023-05-09T06:25:52;101578.78;;;13.86;85.60
3206;BME280;1615;53.602;11.418;2023-05-09T06:28:18;101576.31;;;14.08;86.44
3206;BME280;1615;53.602;11.418;2023-05-09T06:30:43;101515.72;;;13.84;85.67
3206;BME280;1615;53.602;11.418;2023-05-09T06:33:08;101591.06;;;14.17;84.78
3206;BME280;1615;53.602;11.418;2023-05-09T06:35:34;101581.19;;;14.34;85.73
3206;BME280;1615;53.602;11.418;2023-05-09T06:37:59;101579.69;;;14.42;85.12
3206;BME280;1615;53.602;11.418;2023-05-09T06:40:24;101586.19;;;14.51;83.18
3206;BME280;1615;53.602;11.418;2023-05-09T06:42:50;101579.81;;;14.69;83.23
3206;BME280;1615;53.602;11.418;2023-05-09T06:45:15;101415.72;;;13.97;83.04
3206;BME280;1615;53.602;11.418;2023-05-09T06:47:40;101571.47;;;15.06;80.45
3206;BME280;1615;53.602;11.418;2023-05-09T06:50:06;101561.22;;;15.06;79.17
3206;BME280;1615;53.602;11.418;2023-05-09T06:52:32;101556.53;;;15.07;78.54
3206;BME280;1615;53.602;11.418;2023-05-09T06:54:59;101553.66;;;15.12;78.69
3206;BME280;1615;53.602;11.418;2023-05-09T06:57:24;101562.28;;;15.24;79.63
3206;BME280;1615;53.602;11.418;2023-05-09T06:59:49;101552.19;;;15.33;79.30
3206;BME280;1615;53.602;11.418;2023-05-09T07:02:15;101533.84;;;15.23;76.47
3206;BME280;1615;53.602;11.418;2023-05-09T07:04:40;101535.47;;;15.11;75.69
3206;BME280;1615;53.602;11.418;2023-05-09T07:07:05;101546.72;;;15.28;76.38
3206;BME280;1615;53.602;11.418;2023-05-09T07:09:31;101545.69;;;15.24;75.44
3206;BME280;1615;53.602;11.418;2023-05-09T07:11:59;101543.19;;;15.41;75.48
3206;BME280;1615;53.602;11.418;2023-05-09T07:14:25;101534.09;;;15.54;74.52
3206;BME280;1615;53.602;11.418;2023-05-09T07:16:50;101486.69;;;15.20;72.52
3206;BME280;1615;53.602;11.418;2023-05-09T07:19:15;101531.63;;;15.66;72.94
3206;BME280;1615;53.602;11.418;2023-05-09T07:21:41;101522.50;;;15.79;72.23
3206;BME280;1615;53.602;11.418;2023-05-09T07:24:07;101519.75;;;15.65;70.64
3206;BME280;1615;53.602;11.418;2023-05-09T07:26:34;101454.75;;;15.41;72.36
3206;BME280;1615;53.602;11.418;2023-05-09T07:28:59;101525.22;;;16.06;73.17
3206;BME280;1615;53.602;11.418;2023-05-09T07:31:24;101507.75;;;16.19;72.18
3206;BME280;1615;53.602;11.418;2023-05-09T07:33:50;101514.31;;;16.23;71.33
3206;BME280;1615;53.602;11.418;2023-05-09T07:36:15;101511.72;;;16.26;69.84
3206;BME280;1615;53.602;11.418;2023-05-09T07:38:41;101507.13;;;16.22;69.17
3206;BME280;1615;53.602;11.418;2023-05-09T07:41:06;101493.47;;;16.03;68.06
3206;BME280;1615;53.602;11.418;2023-05-09T07:43:32;101499.69;;;16.09;69.88
3206;BME280;1615;53.602;11.418;2023-05-09T07:45:57;101497.06;;;16.26;69.92
3206;BME280;1615;53.602;11.418;2023-05-09T07:48:23;101479.22;;;16.32;69.88
3206;BME280;1615;53.602;11.418;2023-05-09T07:50:48;101481.63;;;16.47;68.47
3206;BME280;1615;53.602;11.418;2023-05-09T07:53:13;101473.69;;;16.32;67.05
3206;BME280;1615;53.602;11.418;2023-05-09T07:55:39;101445.81;;;16.28;68.19
3206;BME280;1615;53.602;11.418;2023-05-09T07:58:04;101430.03;;;16.29;68.69
3206;BME280;1615;53.602;11.418;2023-05-09T08:00:29;101469.69;;;16.60;68.04
3206;BME280;1615;53.602;11.418;2023-05-09T08:02:55;101421.38;;;16.44;68.74
3206;BME280;1615;53.602;11.418;2023-05-09T08:05:20;101508.91;;;16.84;68.77
3206;BME280;1615;53.602;11.418;2023-05-09T08:07:46;101469.13;;;17.10;69.36
3206;BME280;1615;53.602;11.418;2023-05-09T08:10:11;101473.22;;;17.13;66.40
3206;BME280;1615;53.602;11.418;2023-05-09T08:12:37;101477.59;;;17.05;65.74
3206;BME280;1615;53.602;11.418;2023-05-09T08:15:02;101461.03;;;17.22;66.08
3206;BME280;1615;53.602;11.418;2023-05-09T08:17:28;101466.63;;;17.00;64.76
3206;BME280;1615;53.602;11.418;2023-05-09T08:19:53;101457.88;;;17.07;65.46
3206;BME280;1615;53.602;11.418;2023-05-09T08:22:18;101461.19;;;17.26;65.74
3206;BME280;1615;53.602;11.418;2023-05-09T08:24:46;101469.25;;;16.97;63.39
3206;BME280;1615;53.602;11.418;2023-05-09T08:27:12;101455.44;;;17.14;62.89
3206;BME280;1615;53.602;11.418;2023-05-09T08:29:41;101453.03;;;17.21;63.17
3206;BME280;1615;53.602;11.418;2023-05-09T08:32:07;101452.41;;;17.24;62.34
3206;BME280;1615;53.602;11.418;2023-05-09T08:34:33;101398.50;;;16.91;62.29
3206;BME280;1615;53.602;11.418;2023-05-09T08:37:00;101449.47;;;17.29;63.24
3206;BME280;1615;53.602;11.418;2023-05-09T08:39:26;101398.84;;;16.98;62.70
3206;BME280;1615;53.602;11.418;2023-05-09T08:41:58;101458.50;;;17.43;63.70
3206;BME280;1615;53.602;11.418;2023-05-09T08:44:24;101457.72;;;17.51;62.88
3206;BME280;1615;53.602;11.418;2023-05-09T08:47:03;101466.38;;;17.58;62.28
3206;BME280;1615;53.602;11.418;2023-05-09T08:49:29;101433.78;;;17.63;63.20
3206;BME280;1615;53.602;11.418;2023-05-09T08:51:55;101332.38;;;17.15;62.00
3206;BME280;1615;53.602;11.418;2023-05-09T08:54:23;101446.19;;;17.74;61.04
3206;BME280;1615;53.602;11.418;2023-05-09T08:56:50;101447.03;;;17.92;62.06
3206;BME280;1615;53.602;11.418;2023-05-09T08:59:16;101401.44;;;17.59;62.94
3206;BME280;1615;53.602;11.418;2023-05-09T09:01:42;101444.56;;;18.07;60.50
3206;BME280;1615;53.602;11.418;2023-05-09T09:04:08;101444.56;;;17.82;58.70
3206;BME280;1615;53.602;11.418;2023-05-09T09:06:36;101443.91;;;17.93;59.69
3206;BME280;1615;53.602;11.418;2023-05-09T09:09:02;101407.69;;;17.81;61.12
3206;BME280;1615;53.602;11.418;2023-05-09T09:11:36;101423.00;;;18.04;60.39
3206;BME280;1615;53.602;11.418;2023-05-09T09:14:11;101312.09;;;17.45;60.05
3206;BME280;1615;53.602;11.418;2023-05-09T09:16:40;101321.53;;;17.69;60.26
3206;BME280;1615;53.602;11.418;2023-05-09T09:19:10;101427.59;;;18.09;57.51
3206;BME280;1615;53.602;11.418;2023-05-09T09:21:36;101395.75;;;17.64;58.45
3206;BME280;1615;53.602;11.418;2023-05-09T09:24:02;101421.72;;;17.93;58.64
3206;BME280;1615;53.602;11.418;2023-05-09T09:26:29;101427.91;;;18.07;59.50
3206;BME280;1615;53.602;11.418;2023-05-09T09:28:56;101424.50;;;18.19;59.87
3206;BME280;1615;53.602;11.418;2023-05-09T09:31:26;101423.81;;;18.22;59.09
3206;BME280;1615;53.602;11.418;2023-05-09T09:33:58;101398.84;;;18.22;59.06
3206;BME280;1615;53.602;11.418;2023-05-09T09:36:31;101411.22;;;18.50;60.21
3206;BME280;1615;53.602;11.418;2023-05-09T09:39:00;101420.81;;;18.61;59.60
3206;BME280;1615;53.602;11.418;2023-05-09T09:43:55;101406.97;;;18.52;58.35
3206;BME280;1615;53.602;11.418;2023-05-09T09:46:21;101392.59;;;18.50;58.92
3206;BME280;1615;53.602;11.418;2023-05-09T09:48:46;101334.19;;;18.30;57.50
3206;BME280;1615;53.602;11.418;2023-05-09T09:51:19;101367.94;;;18.49;59.05
3206;BME280;1615;53.602;11.418;2023-05-09T09:53:45;101401.78;;;18.51;57.36
3206;BME280;1615;53.602;11.418;2023-05-09T09:56:11;101389.34;;;18.48;59.29
3206;BME280;1615;53.602;11.418;2023-05-09T09:58:36;101384.38;;;18.71;60.12
3206;BME280;1615;53.602;11.418;2023-05-09T10:01:09;101378.59;;;18.84;58.72
3206;BME280;1615;53.602;11.418;2023-05-09T10:03:36;101378.88;;;19.00;58.47
3206;BME280;1615;53.602;11.418;2023-05-09T10:06:02;101376.16;;;19.12;56.83
3206;BME280;1615;53.602;11.418;2023-05-09T10:08:27;101373.22;;;19.17;55.21
3206;BME280;1615;53.602;11.418;2023-05-09T10:10:53;101351.72;;;18.97;54.26
3206;BME280;1615;53.602;11.418;2023-05-09T10:13:19;101362.47;;;19.07;54.03
3206;BME280;1615;53.602;11.418;2023-05-09T10:15:45;101366.06;;;19.07;53.80
3206;BME280;1615;53.602;11.418;2023-05-09T10:18:11;101355.88;;;19.20;53.95
3206;BME280;1615;53.602;11.418;2023-05-09T10:20:38;101353.06;;;19.28;53.24
3206;BME280;1615;53.602;11.418;2023-05-09T10:23:05;101346.13;;;19.05;52.32
3206;BME280;1615;53.602;11.418;2023-05-09T10:25:43;101358.47;;;19.25;53.46
3206;BME280;1615;53.602;11.418;2023-05-09T10:28:13;101297.38;;;19.08;53.74
3206;BME280;1615;53.602;11.418;2023-05-09T10:31:02;101344.91;;;19.44;53.90
3206;BME280;1615;53.602;11.418;2023-05-09T10:33:46;101335.91;;;19.47;52.72
3206;BME280;1615;53.602;11.418;2023-05-09T10:36:17;101334.56;;;19.53;53.38
3206;BME280;1615;53.602;11.418;2023-05-09T10:38:45;101333.41;;;19.33;50.67
3206;BME280;1615;53.602;11.418;2023-05-09T10:41:11;101326.19;;;19.32;50.32
3206;BME280;1615;53.602;11.418;2023-05-09T10:43:38;101286.47;;;19.32;49.22
3206;BME280;1615;53.602;11.418;2023-05-09T10:46:04;101209.53;;;18.95;48.13
3206;BME280;1615;53.602;11.418;2023-05-09T10:48:34;101320.75;;;19.77;48.28
3206;BME280;1615;53.602;11.418;2023-05-09T10:51:01;101231.09;;;19.39;49.52
3206;BME280;1615;53.602;11.418;2023-05-09T10:53:47;101316.72;;;19.86;47.63
3206;BME280;1615;53.602;11.418;2023-05-09T10:56:32;101233.22;;;19.42;47.17
3206;BME280;1615;53.602;11.418;2023-05-09T10:58:58;101292.47;;;19.75;48.26
3206;BME280;1615;53.602;11.418;2023-05-09T11:01:37;101151.78;;;18.80;47.15
3206;BME280;1615;53.602;11.418;2023-05-09T11:04:11;101243.00;;;19.19;46.83
3206;BME280;1615;53.602;11.418;2023-05-09T11:06:49;101277.84;;;19.45;45.76
3206;BME280;1615;53.602;11.418;2023-05-09T11:12:06;101232.72;;;19.40;46.79
3206;BME280;1615;53.602;11.418;2023-05-09T11:17:01;101277.50;;;19.79;46.74
3206;BME280;1615;53.602;11.418;2023-05-09T11:22:00;101249.75;;;19.59;44.38
3206;BME280;1615;53.602;11.418;2023-05-09T11:24:27;101154.69;;;19.04;44.80
3206;BME280;1615;53.602;11.418;2023-05-09T11:26:56;101250.03;;;19.78;45.68
3206;BME280;1615;53.602;11.418;2023-05-09T11:29:25;101264.81;;;20.02;43.78
3206;BME280;1615;53.602;11.418;2023-05-09T11:32:05;101253.16;;;20.09;42.11
3206;BME280;1615;53.602;11.418;2023-05-09T11:34:32;101131.22;;;19.46;40.02
3206;BME280;1615;53.602;11.418;2023-05-09T11:37:12;101229.16;;;20.16;39.17
3206;BME280;1615;53.602;11.418;2023-05-09T11:40:00;101231.22;;;20.07;39.39
3206;BME280;1615;53.602;11.418;2023-05-09T11:42:27;101165.03;;;19.68;40.32
3206;BME280;1615;53.602;11.418;2023-05-09T11:44:53;101237.72;;;20.11;40.42
3206;BME280;1615;53.602;11.418;2023-05-09T11:47:20;101221.75;;;19.88;39.76
3206;BME280;1615;53.602;11.418;2023-05-09T11:49:47;101165.97;;;19.40;38.60
3206;BME280;1615;53.602;11.418;2023-05-09T11:52:12;101214.34;;;19.92;39.17
3206;BME280;1615;53.602;11.418;2023-05-09T11:54:38;101212.53;;;19.96;39.19
3206;BME280;1615;53.602;11.418;2023-05-09T11:57:04;101209.28;;;20.06;38.57
3206;BME280;1615;53.602;11.418;2023-05-09T11:59:30;101205.69;;;20.05;37.56
3206;BME280;1615;53.602;11.418;2023-05-09T12:02:01;101146.38;;;19.81;36.75
3206;BME280;1615;53.602;11.418;2023-05-09T12:04:29;101076.28;;;19.31;36.80
3206;BME280;1615;53.602;11.418;2023-05-09T12:06:57;101156.38;;;19.94;38.33
3206;BME280;1615;53.602;11.418;2023-05-09T12:09:34;101185.88;;;20.31;38.47
3206;BME280;1615;53.602;11.418;2023-05-09T12:12:07;101192.28;;;20.31;36.55
3206;BME280;1615;53.602;11.418;2023-05-09T12:14:34;101140.50;;;20.06;36.75
3206;BME280;1615;53.602;11.418;2023-05-09T12:17:00;101178.13;;;20.36;37.09
3206;BME280;1615;53.602;11.418;2023-05-09T12:19:26;101180.56;;;20.38;36.51
3206;BME280;1615;53.602;11.418;2023-05-09T12:24:24;101145.25;;;20.42;36.33
3206;BME280;1615;53.602;11.418;2023-05-09T12:26:53;101157.81;;;20.48;35.99
3206;BME280;1615;53.602;11.418;2023-05-09T12:29:20;101175.69;;;20.59;36.25
3206;BME280;1615;53.602;11.418;2023-05-09T12:31:46;101109.03;;;20.42;36.83
3206;BME280;1615;53.602;11.418;2023-05-09T12:34:13;101155.31;;;20.70;36.83
3206;BME280;1615;53.602;11.418;2023-05-09T12:36:38;101152.50;;;20.82;38.28
3206;BME280;1615;53.602;11.418;2023-05-09T12:39:10;101118.66;;;20.68;37.65
3206;BME280;1615;53.602;11.418;2023-05-09T12:41:46;101143.72;;;20.68;37.11
3206;BME280;1615;53.602;11.418;2023-05-09T12:44:22;101140.50;;;20.54;37.51
3206;BME280;1615;53.602;11.418;2023-05-09T12:47:00;101129.59;;;20.49;36.35
3206;BME280;1615;53.602;11.418;2023-05-09T12:49:27;101080.97;;;20.35;37.04
3206;BME280;1615;53.602;11.418;2023-05-09T12:51:54;101115.47;;;20.82;37.00
3206;BME280;1615;53.602;11.418;2023-05-09T12:54:21;101118.06;;;20.75;36.58
3206;BME280;1615;53.602;11.418;2023-05-09T12:56:48;101033.66;;;20.23;36.06
3206;BME280;1615;53.602;11.418;2023-05-09T12:59:19;101119.19;;;20.86;37.17
3206;BME280;1615;53.602;11.418;2023-05-09T13:01:44;101105.91;;;20.95;36.98
3206;BME280;1615;53.602;11.418;2023-05-09T13:04:18;101112.25;;;21.07;36.49
3206;BME280;1615;53.602;11.418;2023-05-09T13:06:51;101102.84;;;21.12;36.02
3206;BME280;1615;53.602;11.418;2023-05-09T13:09:18;101088.44;;;21.10;35.55
3206;BME280;1615;53.602;11.418;2023-05-09T13:11:44;101079.16;;;21.06;36.32
3206;BME280;1615;53.602;11.418;2023-05-09T13:14:10;101078.50;;;20.85;35.56
3206;BME280;1615;53.602;11.418;2023-05-09T13:16:35;101099.34;;;21.15;37.64
3206;BME280;1615;53.602;11.418;2023-05-09T13:19:01;101072.28;;;21.15;36.91
3206;BME280;1615;53.602;11.418;2023-05-09T13:21:26;101086.59;;;21.29;35.86